createdAt,value
2022-08-25T00:01:50.845Z,42.47
2022-08-25T00:04:20.937Z,42.73
2022-08-25T00:06:50.198Z,42.66
2022-08-25T00:09:21.930Z,42.91
2022-08-25T00:11:50.743Z,42.78
2022-08-25T00:14:22.559Z,43.08
2022-08-25T00:16:50.543Z,43.05
2022-08-25T00:19:21.225Z,43.06
2022-08-25T00:21:49.509Z,43.38
2022-08-25T00:24:19.841Z,43.49
2022-08-25T00:26:50.662Z,43.46
2022-08-25T00:29:20.513Z,43.49
2022-08-25T00:31:48.866Z,43.75
2022-08-25T00:34:23.002Z,43.91
2022-08-25T00:36:51.562Z,43.88
2022-08-25T00:39:21.865Z,43.75
2022-08-25T00:41:51.615Z,44.11
2022-08-25T00:44:21.154Z,44.37
2022-08-25T00:46:51.629Z,44.17
2022-08-25T00:49:25.711Z,44.30
2022-08-25T00:51:58.278Z,44.29
2022-08-25T00:54:28.101Z,44.37
2022-08-25T00:56:57.394Z,44.47
2022-08-25T00:59:27.577Z,44.67
2022-08-25T01:01:56.270Z,44.81
2022-08-25T01:04:24.453Z,44.94
2022-08-25T01:06:53.270Z,45.00
2022-08-25T01:09:21.408Z,45.09
2022-08-25T01:11:49.740Z,45.13
2022-08-25T01:14:21.170Z,45.23
2022-08-25T01:16:51.202Z,45.27
2022-08-25T01:19:24.526Z,45.37
2022-08-25T01:21:55.014Z,45.59
2022-08-25T01:24:31.403Z,45.58
2022-08-25T01:26:59.576Z,45.88
2022-08-25T01:29:27.710Z,45.83
2022-08-25T01:31:58.770Z,46.02
2022-08-25T01:34:28.017Z,46.08
2022-08-25T01:36:58.530Z,45.99
2022-08-25T01:39:29.110Z,46.07
2022-08-25T01:42:10.607Z,46.46
2022-08-25T01:44:40.293Z,46.25
2022-08-25T01:47:09.077Z,46.69
2022-08-25T01:49:37.104Z,46.80
2022-08-25T01:52:13.566Z,46.83
2022-08-25T01:54:41.430Z,47.06
2022-08-25T01:57:09.412Z,46.99
2022-08-25T01:59:37.474Z,47.08
2022-08-25T02:02:06.069Z,47.21
2022-08-25T02:04:35.063Z,47.38
2022-08-25T02:07:05.560Z,47.19
2022-08-25T02:09:35.883Z,47.73
2022-08-25T02:12:04.730Z,47.62
2022-08-25T02:14:32.609Z,47.74
2022-08-25T02:17:00.576Z,47.79
2022-08-25T02:19:30.944Z,47.84
2022-08-25T02:21:59.785Z,48.01
2022-08-25T02:24:27.731Z,48.10
2022-08-25T02:26:58.023Z,48.26
2022-08-25T02:29:26.315Z,48.32
2022-08-25T02:31:54.394Z,48.40
2022-08-25T02:34:22.375Z,48.48
2022-08-25T02:36:50.200Z,48.60
2022-08-25T02:39:21.042Z,48.56
2022-08-25T02:41:49.080Z,48.78
2022-08-25T02:44:18.744Z,48.78
2022-08-25T02:46:46.621Z,48.83
2022-08-25T02:49:14.411Z,49.01
2022-08-25T02:51:42.917Z,49.10
2022-08-25T02:54:10.779Z,49.04
2022-08-25T02:56:38.853Z,49.39
2022-08-25T02:59:06.925Z,49.38
2022-08-25T03:01:36.370Z,49.58
2022-08-25T03:04:04.699Z,49.56
2022-08-25T03:06:32.677Z,49.59
2022-08-25T03:09:01.384Z,49.74
2022-08-25T03:11:29.636Z,49.82
2022-08-25T03:13:57.549Z,49.88
2022-08-25T03:16:27.634Z,49.93
2022-08-25T03:18:58.313Z,50.21
2022-08-25T03:21:26.840Z,50.22
2022-08-25T03:23:54.889Z,50.29
2022-08-25T03:26:40.446Z,50.32
2022-08-25T03:29:08.999Z,50.57
2022-08-25T03:31:37.235Z,50.58
2022-08-25T03:34:06.997Z,50.78
2022-08-25T03:36:34.856Z,50.75
2022-08-25T03:39:02.697Z,50.97
2022-08-25T03:41:33.428Z,50.96
2022-08-25T03:44:01.968Z,51.05
2022-08-25T03:46:32.285Z,51.11
2022-08-25T03:49:02.079Z,51.21
2022-08-25T03:51:34.076Z,51.34
2022-08-25T03:54:03.487Z,51.32
2022-08-25T03:56:31.755Z,51.63
2022-08-25T03:58:59.893Z,51.65
2022-08-25T04:01:28.033Z,51.68
2022-08-25T04:03:56.345Z,51.77
2022-08-25T04:06:24.545Z,51.94
2022-08-25T04:08:53.819Z,51.96
2022-08-25T04:11:24.241Z,52.10
2022-08-25T04:13:53.978Z,52.22
2022-08-25T04:16:24.985Z,52.28
2022-08-25T04:18:55.052Z,52.32
2022-08-25T04:21:24.394Z,52.43
2022-08-25T04:23:55.455Z,52.59
2022-08-25T04:26:25.244Z,52.59
2022-08-25T04:28:53.108Z,52.65
2022-08-25T04:31:22.750Z,52.82
2022-08-25T04:33:50.778Z,52.88
2022-08-25T04:36:20.095Z,53.24
2022-08-25T04:38:49.476Z,53.16
2022-08-25T04:41:21.292Z,53.29
2022-08-25T04:43:49.220Z,53.22
2022-08-25T04:46:20.799Z,53.42
2022-08-25T04:48:49.808Z,53.33
2022-08-25T04:51:19.755Z,53.60
2022-08-25T04:53:48.026Z,53.71
2022-08-25T04:56:19.841Z,53.75
2022-08-25T04:58:47.876Z,53.97
2022-08-25T05:01:17.806Z,53.95
2022-08-25T05:03:46.588Z,54.14
2022-08-25T05:06:16.354Z,54.32
2022-08-25T05:08:45.693Z,54.34
2022-08-25T05:11:17.346Z,54.30
2022-08-25T05:13:51.387Z,54.48
2022-08-25T05:16:21.386Z,54.68
2022-08-25T05:18:49.638Z,54.78
2022-08-25T05:21:20.067Z,54.89
2022-08-25T05:23:48.919Z,54.86
2022-08-25T05:26:20.583Z,55.01
2022-08-25T05:28:51.752Z,55.20
2022-08-25T05:31:21.341Z,55.11
2022-08-25T05:33:49.555Z,55.28
2022-08-25T05:36:19.743Z,55.44
2022-08-25T05:38:48.003Z,55.63
2022-08-25T05:41:17.991Z,55.71
2022-08-25T05:43:48.070Z,55.67
2022-08-25T05:46:19.610Z,55.80
2022-08-25T05:48:47.543Z,55.94
2022-08-25T05:51:16.056Z,56.00
2022-08-25T05:53:45.614Z,56.15
2022-08-25T05:56:14.251Z,56.08
2022-08-25T05:58:43.215Z,56.68
2022-08-25T06:01:36.935Z,56.54
2022-08-25T06:04:06.476Z,56.44
2022-08-25T06:06:34.562Z,56.57
2022-08-25T06:09:06.828Z,56.73
2022-08-25T06:11:34.696Z,56.77
2022-08-25T06:14:02.666Z,56.98
2022-08-25T06:16:31.107Z,56.87
2022-08-25T06:18:59.045Z,57.18
2022-08-25T06:21:29.020Z,57.27
2022-08-25T06:23:57.141Z,57.31
2022-08-25T06:26:25.346Z,57.44
2022-08-25T06:28:53.925Z,57.57
2022-08-25T06:31:23.102Z,57.58
2022-08-25T06:33:52.031Z,57.62
2022-08-25T06:36:20.288Z,57.90
2022-08-25T06:38:49.533Z,57.90
2022-08-25T06:41:17.573Z,57.77
2022-08-25T06:43:49.925Z,58.16
2022-08-25T06:46:21.903Z,58.20
2022-08-25T06:48:58.332Z,58.37
2022-08-25T06:51:27.561Z,58.17
2022-08-25T06:53:56.796Z,58.36
2022-08-25T06:56:24.657Z,58.34
2022-08-25T06:58:54.514Z,58.50
2022-08-25T07:01:27.089Z,58.50
2022-08-25T07:04:00.240Z,58.73
2022-08-25T07:06:31.002Z,58.70
2022-08-25T07:09:01.017Z,58.83
2022-08-25T07:11:29.322Z,58.83
2022-08-25T07:13:57.202Z,58.94
2022-08-25T07:16:29.878Z,59.09
2022-08-25T07:19:00.170Z,59.21
2022-08-25T07:21:33.385Z,59.12
2022-08-25T07:24:05.313Z,59.24
2022-08-25T07:26:38.568Z,59.28
2022-08-25T07:29:08.024Z,59.12
2022-08-25T07:31:36.427Z,59.40
2022-08-25T07:34:23.353Z,59.24
2022-08-25T07:36:51.602Z,59.31
2022-08-25T07:39:22.185Z,59.42
2022-08-25T07:41:51.951Z,59.46
2022-08-25T07:44:21.816Z,59.44
2022-08-25T07:46:50.886Z,59.44
2022-08-25T07:49:23.339Z,59.69
2022-08-25T07:52:03.945Z,59.74
2022-08-25T07:54:35.613Z,59.78
2022-08-25T07:57:07.798Z,59.76
2022-08-25T07:59:39.339Z,59.67
2022-08-25T08:02:08.843Z,59.79
2022-08-25T08:04:37.878Z,59.87
2022-08-25T08:07:06.699Z,59.75
2022-08-25T08:09:41.442Z,59.78
2022-08-25T08:12:10.640Z,59.96
2022-08-25T08:14:39.595Z,59.76
2022-08-25T08:17:13.653Z,59.76
2022-08-25T08:19:44.863Z,60.14
2022-08-25T08:22:19.018Z,59.83
2022-08-25T08:24:54.676Z,60.32
2022-08-25T08:27:25.194Z,59.85
2022-08-25T08:29:53.706Z,60.14
2022-08-25T08:32:23.834Z,60.00
2022-08-25T08:34:58.517Z,60.23
2022-08-25T08:37:26.419Z,59.87
2022-08-25T08:39:57.206Z,60.17
2022-08-25T08:42:42.983Z,60.01
2022-08-25T08:45:27.234Z,60.33
2022-08-25T08:48:11.861Z,60.34
2022-08-25T08:50:50.580Z,60.09
2022-08-25T08:53:26.058Z,60.25
2022-08-25T08:55:58.695Z,60.48
2022-08-25T08:58:34.146Z,60.33
2022-08-25T09:01:03.044Z,60.17
2022-08-25T09:03:37.262Z,60.05
2022-08-25T09:06:12.652Z,60.18
2022-08-25T09:08:44.962Z,59.94
2022-08-25T09:11:24.300Z,59.98
2022-08-25T09:14:20.590Z,60.11
2022-08-25T09:16:56.484Z,60.14
2022-08-25T09:19:47.192Z,59.95
2022-08-25T09:22:35.763Z,60.14
2022-08-25T09:25:12.231Z,60.18
2022-08-25T09:27:53.442Z,60.24
2022-08-25T09:30:25.091Z,60.30
2022-08-25T09:33:03.795Z,60.31
2022-08-25T09:35:36.896Z,60.27
2022-08-25T09:38:08.867Z,60.32
2022-08-25T09:40:40.250Z,60.10
2022-08-25T09:43:21.874Z,59.90
2022-08-25T09:45:57.361Z,60.30
2022-08-25T09:48:28.703Z,60.09
2022-08-25T09:51:00.923Z,59.76
2022-08-25T09:53:33.960Z,59.74
2022-08-25T09:56:06.741Z,59.91
2022-08-25T09:58:36.289Z,59.82
2022-08-25T10:01:13.152Z,59.60
2022-08-25T10:03:58.701Z,59.95
2022-08-25T10:06:28.379Z,59.50
2022-08-25T10:09:02.202Z,59.23
2022-08-25T10:11:41.639Z,59.36
2022-08-25T10:14:21.315Z,59.42
2022-08-25T10:16:50.291Z,59.49
2022-08-25T10:19:26.609Z,59.57
2022-08-25T10:22:06.077Z,59.34
2022-08-25T10:24:34.959Z,59.16
2022-08-25T10:27:15.425Z,58.86
2022-08-25T10:30:00.086Z,59.15
2022-08-25T10:32:41.066Z,58.50
2022-08-25T10:35:14.783Z,58.60
2022-08-25T10:37:59.901Z,58.84
2022-08-25T10:40:37.228Z,58.57
2022-08-25T10:43:09.125Z,58.11
2022-08-25T10:45:43.873Z,58.53
2022-08-25T10:48:27.329Z,58.02
2022-08-25T10:51:01.495Z,58.09
2022-08-25T10:53:36.089Z,58.34
2022-08-25T10:56:13.793Z,57.94
2022-08-25T10:59:11.001Z,57.90
2022-08-25T11:01:57.155Z,57.99
2022-08-25T11:04:30.190Z,57.67
2022-08-25T11:07:04.313Z,57.53
2022-08-25T11:09:36.392Z,57.46
2022-08-25T11:12:09.881Z,57.21
2022-08-25T11:14:42.953Z,57.06
2022-08-25T11:17:17.614Z,57.02
2022-08-25T11:19:48.959Z,57.18
2022-08-25T11:22:24.557Z,56.73
2022-08-25T11:25:07.518Z,56.78
2022-08-25T11:27:42.661Z,56.51
2022-08-25T11:30:16.692Z,56.42
2022-08-25T11:32:50.585Z,56.35
2022-08-25T11:35:26.543Z,56.15
2022-08-25T11:38:10.749Z,56.17
2022-08-25T11:41:01.090Z,55.88
2022-08-25T11:43:48.040Z,55.92
2022-08-25T11:46:31.037Z,55.68
2022-08-25T11:49:15.172Z,55.51
2022-08-25T11:51:46.795Z,55.48
2022-08-25T11:54:24.885Z,55.08
2022-08-25T11:56:59.386Z,55.16
2022-08-25T12:00:04.679Z,55.08
2022-08-25T12:02:37.751Z,54.75
2022-08-25T12:05:09.935Z,54.55
2022-08-25T12:08:34.343Z,54.63
2022-08-25T12:11:10.653Z,54.41
2022-08-25T12:13:43.236Z,54.34
2022-08-25T12:16:43.957Z,54.00
2022-08-25T12:19:28.032Z,54.00
2022-08-25T12:22:19.553Z,53.85
2022-08-25T12:24:54.950Z,53.68
2022-08-25T12:27:33.750Z,53.61
2022-08-25T12:30:06.817Z,53.38
2022-08-25T12:32:48.630Z,53.24
2022-08-25T12:35:32.293Z,53.16
2022-08-25T12:38:08.950Z,53.28
2022-08-25T12:40:40.585Z,52.83
2022-08-25T12:43:12.467Z,52.76
2022-08-25T12:45:44.724Z,52.57
2022-08-25T12:48:55.924Z,52.28
2022-08-25T12:51:26.844Z,52.42
2022-08-25T12:54:02.396Z,52.40
2022-08-25T12:56:39.545Z,51.99
2022-08-25T12:59:16.692Z,52.07
2022-08-25T13:02:03.084Z,51.95
2022-08-25T13:05:06.295Z,51.70
2022-08-25T13:08:15.337Z,51.84
2022-08-25T13:10:49.760Z,51.44
2022-08-25T13:13:32.457Z,51.54
2022-08-25T13:16:02.645Z,51.02
2022-08-25T13:18:33.078Z,51.22
2022-08-25T13:21:10.486Z,51.08
2022-08-25T13:23:41.834Z,50.70
2022-08-25T13:26:15.235Z,50.82
2022-08-25T13:28:50.388Z,50.60
2022-08-25T13:31:22.199Z,50.67
2022-08-25T13:33:55.884Z,50.24
2022-08-25T13:36:47.040Z,50.23
2022-08-25T13:39:45.730Z,50.51
2022-08-25T13:42:17.088Z,50.37
2022-08-25T13:44:52.456Z,49.97
2022-08-25T13:47:45.234Z,49.98
2022-08-25T13:50:36.725Z,49.73
2022-08-25T13:53:12.246Z,49.82
2022-08-25T13:55:52.260Z,49.32
2022-08-25T13:58:32.492Z,49.13
2022-08-25T14:01:22.903Z,49.60
2022-08-25T14:04:31.401Z,49.21
2022-08-25T14:07:26.880Z,48.81
2022-08-25T14:10:06.217Z,49.10
2022-08-25T14:12:38.018Z,48.44
2022-08-25T14:15:12.726Z,48.46
2022-08-25T14:17:43.531Z,48.87
2022-08-25T14:20:28.573Z,48.64
2022-08-25T14:22:59.481Z,48.50
2022-08-25T14:25:31.271Z,47.98
2022-08-25T14:28:09.108Z,48.28
2022-08-25T14:30:46.436Z,47.86
2022-08-25T14:33:16.519Z,48.01
2022-08-25T14:35:48.126Z,47.70
2022-08-25T14:38:18.123Z,47.55
2022-08-25T14:40:46.515Z,47.63
2022-08-25T14:43:15.880Z,47.56
2022-08-25T14:45:48.355Z,47.66
2022-08-25T14:48:25.241Z,47.43
2022-08-25T14:50:53.474Z,47.20
2022-08-25T14:53:21.560Z,47.18
2022-08-25T14:55:53.702Z,47.15
2022-08-25T14:58:27.417Z,47.03
2022-08-25T15:00:57.648Z,46.74
2022-08-25T15:03:31.721Z,46.54
2022-08-25T15:06:01.438Z,46.72
2022-08-25T15:08:47.330Z,46.82
2022-08-25T15:11:15.566Z,46.48
2022-08-25T15:13:49.373Z,46.63
2022-08-25T15:16:33.858Z,46.58
2022-08-25T15:19:06.626Z,46.62
2022-08-25T15:21:36.193Z,46.26
2022-08-25T15:24:04.954Z,46.50
2022-08-25T15:26:35.157Z,46.16
2022-08-25T15:29:04.768Z,46.27
2022-08-25T15:31:34.084Z,46.23
2022-08-25T15:34:02.018Z,46.15
2022-08-25T15:36:29.931Z,46.14
2022-08-25T15:38:57.926Z,46.33
2022-08-25T15:41:27.853Z,46.06
2022-08-25T15:43:56.609Z,45.78
2022-08-25T15:46:28.681Z,45.86
2022-08-25T15:48:59.691Z,45.88
2022-08-25T15:51:28.454Z,45.83
2022-08-25T15:53:56.665Z,45.90
2022-08-25T15:56:26.665Z,45.64
2022-08-25T15:58:55.593Z,45.75
2022-08-25T16:01:26.060Z,45.48
2022-08-25T16:03:58.276Z,45.42
2022-08-25T16:06:28.123Z,45.61
2022-08-25T16:08:56.129Z,45.34
2022-08-25T16:11:27.994Z,45.47
2022-08-25T16:13:58.725Z,45.31
2022-08-25T16:16:29.221Z,45.27
2022-08-25T16:18:57.713Z,45.13
2022-08-25T16:21:30.079Z,45.06
2022-08-25T16:24:02.584Z,45.15
2022-08-25T16:26:34.817Z,44.80
2022-08-25T16:29:02.720Z,44.97
2022-08-25T16:31:34.617Z,44.88
2022-08-25T16:34:02.837Z,45.01
2022-08-25T16:36:32.098Z,44.82
2022-08-25T16:39:00.973Z,44.89
2022-08-25T16:41:34.082Z,44.83
2022-08-25T16:44:03.286Z,44.89
2022-08-25T16:46:31.674Z,44.75
2022-08-25T16:49:02.958Z,44.88
2022-08-25T16:51:32.381Z,44.73
2022-08-25T16:54:22.272Z,44.84
2022-08-25T16:56:55.214Z,44.75
2022-08-25T16:59:23.864Z,44.67
2022-08-25T17:01:52.527Z,44.94
2022-08-25T17:04:21.032Z,44.59
2022-08-25T17:06:58.810Z,44.67
2022-08-25T17:09:26.691Z,44.36
2022-08-25T17:11:56.892Z,44.58
2022-08-25T17:14:25.336Z,44.52
2022-08-25T17:16:55.000Z,44.60
2022-08-25T17:19:24.965Z,44.42
2022-08-25T17:21:54.500Z,44.82
2022-08-25T17:24:29.299Z,44.69
2022-08-25T17:27:01.326Z,44.66
2022-08-25T17:29:29.605Z,44.82
2022-08-25T17:31:58.446Z,44.28
2022-08-25T17:34:27.887Z,44.77
2022-08-25T17:36:56.514Z,44.36
2022-08-25T17:39:26.759Z,44.33
2022-08-25T17:41:54.690Z,44.71
2022-08-25T17:44:22.583Z,44.44
2022-08-25T17:46:50.841Z,44.21
2022-08-25T17:49:19.819Z,44.65
2022-08-25T17:51:47.742Z,44.55
2022-08-25T17:54:15.665Z,44.27
2022-08-25T17:56:45.304Z,44.67
2022-08-25T17:59:14.094Z,44.40
2022-08-25T18:01:42.591Z,44.71
2022-08-25T18:04:17.161Z,44.87
2022-08-25T18:06:45.643Z,44.37
2022-08-25T18:09:13.627Z,44.43
2022-08-25T18:11:42.056Z,44.84
2022-08-25T18:14:12.598Z,44.56
2022-08-25T18:16:42.243Z,44.45
2022-08-25T18:19:10.755Z,44.40
2022-08-25T18:21:38.909Z,44.79
2022-08-25T18:24:08.105Z,44.86
2022-08-25T18:26:36.650Z,44.94
2022-08-25T18:29:05.226Z,45.02
2022-08-25T18:31:34.559Z,44.93
2022-08-25T18:34:04.985Z,44.86
2022-08-25T18:36:33.658Z,45.02
2022-08-25T18:39:25.090Z,44.73
2022-08-25T18:41:53.148Z,44.74
2022-08-25T18:44:21.820Z,45.18
2022-08-25T18:46:51.074Z,44.96
2022-08-25T18:49:22.433Z,44.89
2022-08-25T18:51:54.672Z,45.03
2022-08-25T18:54:23.071Z,44.87
2022-08-25T18:56:52.530Z,45.06
2022-08-25T18:59:23.813Z,45.16
2022-08-25T19:01:54.628Z,45.08
2022-08-25T19:04:28.686Z,45.19
2022-08-25T19:07:00.155Z,45.16
2022-08-25T19:09:28.062Z,45.34
2022-08-25T19:11:57.049Z,45.36
2022-08-25T19:14:26.319Z,45.26
2022-08-25T19:16:57.865Z,45.56
2022-08-25T19:19:26.198Z,45.44
2022-08-25T19:21:54.076Z,45.71
2022-08-25T19:24:22.049Z,45.46
2022-08-25T19:26:54.331Z,45.60
2022-08-25T19:29:24.107Z,45.75
2022-08-25T19:31:52.077Z,45.76
2022-08-25T19:34:27.984Z,45.85
2022-08-25T19:36:57.147Z,45.78
2022-08-25T19:39:27.408Z,45.87
2022-08-25T19:41:56.594Z,45.91
2022-08-25T19:44:26.137Z,45.87
2022-08-25T19:46:56.488Z,46.00
2022-08-25T19:49:34.304Z,46.06
2022-08-25T19:52:10.591Z,46.35
2022-08-25T19:54:44.490Z,45.94
2022-08-25T19:57:14.380Z,46.43
2022-08-25T19:59:57.315Z,46.47
2022-08-25T20:02:29.489Z,46.41
2022-08-25T20:05:00.412Z,46.52
2022-08-25T20:07:31.591Z,46.30
2022-08-25T20:10:01.441Z,46.38
2022-08-25T20:12:29.873Z,46.89
2022-08-25T20:14:57.804Z,46.84
2022-08-25T20:17:28.518Z,46.98
2022-08-25T20:20:00.548Z,46.93
2022-08-25T20:22:31.177Z,47.26
2022-08-25T20:24:59.948Z,47.08
2022-08-25T20:27:32.855Z,47.38
2022-08-25T20:30:02.795Z,47.22
2022-08-25T20:32:32.302Z,47.17
2022-08-25T20:35:01.895Z,47.54
2022-08-25T20:37:30.502Z,47.27
2022-08-25T20:39:59.170Z,47.42
2022-08-25T20:42:27.521Z,47.35
2022-08-25T20:44:55.649Z,47.41
2022-08-25T20:47:23.585Z,47.75
2022-08-25T20:49:51.450Z,47.81
2022-08-25T20:52:21.319Z,48.03
2022-08-25T20:54:51.044Z,48.09
2022-08-25T20:57:25.764Z,47.98
2022-08-25T20:59:55.103Z,48.40
2022-08-25T21:02:23.649Z,48.35
2022-08-25T21:04:52.197Z,48.14
2022-08-25T21:07:23.753Z,48.65
2022-08-25T21:09:52.367Z,48.56
2022-08-25T21:12:21.294Z,48.31
2022-08-25T21:14:49.285Z,48.74
2022-08-25T21:17:19.180Z,48.47
2022-08-25T21:22:22.310Z,49.03
2022-08-25T21:24:51.418Z,48.87
2022-08-25T21:27:19.329Z,49.23
2022-08-25T21:29:50.708Z,49.29
2022-08-25T21:32:22.316Z,49.30
2022-08-25T21:34:52.641Z,49.33
2022-08-25T21:37:23.679Z,49.25
2022-08-25T21:39:52.086Z,49.67
2022-08-25T21:42:20.286Z,49.69
2022-08-25T21:44:48.189Z,49.53
2022-08-25T21:47:16.072Z,49.93
2022-08-25T21:49:49.606Z,49.68
2022-08-25T21:52:17.796Z,50.01
2022-08-25T21:54:47.453Z,49.85
2022-08-25T21:57:17.878Z,50.00
2022-08-25T21:59:47.363Z,49.96
2022-08-25T22:06:37.078Z,50.57
2022-08-25T22:09:05.816Z,50.43
2022-08-25T22:11:34.049Z,50.77
2022-08-25T22:14:05.458Z,50.68
2022-08-25T22:16:35.895Z,50.83
2022-08-25T22:19:05.420Z,50.90
2022-08-25T22:21:35.522Z,50.66
2022-08-25T22:24:04.064Z,50.64
2022-08-25T22:26:33.624Z,50.87
2022-08-25T22:29:02.020Z,50.78
2022-08-25T22:31:30.541Z,51.41
2022-08-25T22:33:58.433Z,51.48
2022-08-25T22:36:30.707Z,51.31
2022-08-25T22:39:00.855Z,51.30
2022-08-25T22:41:31.487Z,51.28
2022-08-25T22:44:01.535Z,51.61
2022-08-25T22:46:33.627Z,51.63
2022-08-25T22:49:04.019Z,51.82
2022-08-25T22:51:32.089Z,51.57
2022-08-25T22:54:03.271Z,51.73
2022-08-25T22:56:34.907Z,51.68
2022-08-25T22:59:08.715Z,51.93
2022-08-25T23:01:37.845Z,52.05
2022-08-25T23:04:08.102Z,52.10
2022-08-25T23:06:36.269Z,52.43
2022-08-25T23:09:07.897Z,52.03
2022-08-25T23:11:38.728Z,52.38
2022-08-25T23:14:10.888Z,52.30
2022-08-25T23:16:38.960Z,52.49
2022-08-25T23:19:07.004Z,52.53
2022-08-25T23:21:53.231Z,52.84
2022-08-25T23:24:29.342Z,52.60
2022-08-25T23:26:58.447Z,52.82
2022-08-25T23:29:27.720Z,53.21
2022-08-25T23:31:56.606Z,53.10
2022-08-25T23:34:24.848Z,53.09
2022-08-25T23:36:53.332Z,53.45
2022-08-25T23:39:22.189Z,53.51
2022-08-25T23:41:52.068Z,53.22
2022-08-25T23:44:20.890Z,53.59
2022-08-25T23:46:48.951Z,53.67
2022-08-25T23:49:18.965Z,53.63
2022-08-25T23:51:48.865Z,54.02
2022-08-25T23:54:17.759Z,53.72
2022-08-25T23:56:52.413Z,54.03
2022-08-25T23:59:24.499Z,54.21
